Terminal Aerodrome Forecast
Issued by NWS

Home | Current Version | Previous Version | Text Only | Print | Product List | Glossary On
Versions: 1 2 3 4 5 6 7 8 9 10 11 12 13 14 15 16 17 18 19 20 21
669
FTUS43 KICT 190520
TAFHUT
TAF
KHUT 190520Z 1906/2006 11012G18KT P6SM -SHRA VCTS SCT050CB BKN100
      TEMPO 1906/1910 -TSRA SCT015 OVC040CB
     FM191000 12006KT P6SM BKN070
     FM191400 12011KT P6SM SCT060
     FM191900 19012G18KT P6SM SCT050
     FM192000 21012KT P6SM VCTS BKN050CB
     FM200200 32012KT P6SM BKN025=

USA.gov is the U.S. government's official web portal to all federal, state and local government web resources and services.